sensor_id;sensor_type;location;lat;lon;timestamp;P1;durP1;ratioP1;P2;durP2;ratioP2
21729;SDS011;11027;51.030;13.812;2023-02-18T00:02:11;6.20;;;1.77;;
21729;SDS011;11027;51.030;13.812;2023-02-18T00:04:36;6.38;;;1.48;;
21729;SDS011;11027;51.030;13.812;2023-02-18T00:07:01;5.35;;;1.60;;
21729;SDS011;11027;51.030;13.812;2023-02-18T00:09:26;5.00;;;1.50;;
21729;SDS011;11027;51.030;13.812;2023-02-18T00:11:52;5.82;;;1.50;;
21729;SDS011;11027;51.030;13.812;2023-02-18T00:14:17;6.72;;;1.70;;
21729;SDS011;11027;51.030;13.812;2023-02-18T00:16:43;10.52;;;1.80;;
21729;SDS011;11027;51.030;13.812;2023-02-18T00:19:11;5.15;;;1.55;;
21729;SDS011;11027;51.030;13.812;2023-02-18T00:21:39;5.60;;;1.52;;
21729;SDS011;11027;51.030;13.812;2023-02-18T00:24:04;3.83;;;1.40;;
21729;SDS011;11027;51.030;13.812;2023-02-18T00:26:30;7.78;;;1.55;;
21729;SDS011;11027;51.030;13.812;2023-02-18T00:28:56;5.05;;;1.40;;
21729;SDS011;11027;51.030;13.812;2023-02-18T00:31:40;7.47;;;1.98;;
21729;SDS011;11027;51.030;13.812;2023-02-18T00:34:05;8.40;;;1.73;;
21729;SDS011;11027;51.030;13.812;2023-02-18T00:36:31;4.15;;;1.42;;
21729;SDS011;11027;51.030;13.812;2023-02-18T00:38:57;7.45;;;1.73;;
21729;SDS011;11027;51.030;13.812;2023-02-18T00:41:24;4.88;;;2.20;;
21729;SDS011;11027;51.030;13.812;2023-02-18T00:43:51;5.70;;;1.63;;
21729;SDS011;11027;51.030;13.812;2023-02-18T00:46:16;7.53;;;2.17;;
21729;SDS011;11027;51.030;13.812;2023-02-18T00:48:42;5.72;;;1.70;;
21729;SDS011;11027;51.030;13.812;2023-02-18T00:51:07;7.85;;;2.72;;
21729;SDS011;11027;51.030;13.812;2023-02-18T00:53:33;9.25;;;2.50;;
21729;SDS011;11027;51.030;13.812;2023-02-18T00:55:59;5.97;;;1.92;;
21729;SDS011;11027;51.030;13.812;2023-02-18T00:58:25;5.38;;;1.92;;
21729;SDS011;11027;51.030;13.812;2023-02-18T01:00:50;4.25;;;1.90;;
21729;SDS011;11027;51.030;13.812;2023-02-18T01:03:16;7.57;;;1.63;;
21729;SDS011;11027;51.030;13.812;2023-02-18T01:05:42;4.88;;;1.63;;
21729;SDS011;11027;51.030;13.812;2023-02-18T01:08:07;3.33;;;1.30;;
21729;SDS011;11027;51.030;13.812;2023-02-18T01:10:34;7.72;;;1.63;;
21729;SDS011;11027;51.030;13.812;2023-02-18T01:13:01;4.35;;;1.60;;
21729;SDS011;11027;51.030;13.812;2023-02-18T01:15:28;4.07;;;1.50;;
21729;SDS011;11027;51.030;13.812;2023-02-18T01:17:53;5.00;;;1.80;;
21729;SDS011;11027;51.030;13.812;2023-02-18T01:20:19;5.47;;;1.88;;
21729;SDS011;11027;51.030;13.812;2023-02-18T01:22:44;9.38;;;1.60;;
21729;SDS011;11027;51.030;13.812;2023-02-18T01:25:10;4.57;;;1.42;;
21729;SDS011;11027;51.030;13.812;2023-02-18T01:27:36;6.78;;;1.77;;
21729;SDS011;11027;51.030;13.812;2023-02-18T01:30:02;6.95;;;1.80;;
21729;SDS011;11027;51.030;13.812;2023-02-18T01:32:29;6.88;;;1.95;;
21729;SDS011;11027;51.030;13.812;2023-02-18T01:34:54;4.72;;;1.55;;
21729;SDS011;11027;51.030;13.812;2023-02-18T01:37:20;4.45;;;1.70;;
21729;SDS011;11027;51.030;13.812;2023-02-18T01:39:45;4.85;;;1.70;;
21729;SDS011;11027;51.030;13.812;2023-02-18T01:42:20;5.10;;;1.63;;
21729;SDS011;11027;51.030;13.812;2023-02-18T01:44:52;7.13;;;1.97;;
21729;SDS011;11027;51.030;13.812;2023-02-18T01:47:17;7.10;;;2.00;;
21729;SDS011;11027;51.030;13.812;2023-02-18T01:49:47;6.55;;;2.00;;
21729;SDS011;11027;51.030;13.812;2023-02-18T01:52:18;8.25;;;1.83;;
21729;SDS011;11027;51.030;13.812;2023-02-18T01:54:48;8.10;;;2.22;;
21729;SDS011;11027;51.030;13.812;2023-02-18T01:57:17;6.60;;;1.75;;
21729;SDS011;11027;51.030;13.812;2023-02-18T01:59:48;4.00;;;1.70;;
21729;SDS011;11027;51.030;13.812;2023-02-18T02:02:20;5.38;;;1.60;;
21729;SDS011;11027;51.030;13.812;2023-02-18T02:04:49;5.70;;;1.60;;
21729;SDS011;11027;51.030;13.812;2023-02-18T02:07:15;4.68;;;1.48;;
21729;SDS011;11027;51.030;13.812;2023-02-18T02:09:43;7.28;;;1.52;;
21729;SDS011;11027;51.030;13.812;2023-02-18T02:12:13;5.93;;;1.90;;
21729;SDS011;11027;51.030;13.812;2023-02-18T02:24:04;9.25;;;1.33;;
21729;SDS011;11027;51.030;13.812;2023-02-18T02:29:16;7.80;;;1.75;;
21729;SDS011;11027;51.030;13.812;2023-02-18T02:32:13;5.95;;;1.42;;
21729;SDS011;11027;51.030;13.812;2023-02-18T02:35:22;6.50;;;1.50;;
21729;SDS011;11027;51.030;13.812;2023-02-18T02:37:53;5.53;;;1.40;;
21729;SDS011;11027;51.030;13.812;2023-02-18T02:40:29;6.38;;;1.25;;
21729;SDS011;11027;51.030;13.812;2023-02-18T02:45:43;4.85;;;1.30;;
21729;SDS011;11027;51.030;13.812;2023-02-18T02:48:32;4.93;;;1.40;;
21729;SDS011;11027;51.030;13.812;2023-02-18T02:54:21;5.53;;;1.33;;
21729;SDS011;11027;51.030;13.812;2023-02-18T02:56:49;4.68;;;1.45;;
21729;SDS011;11027;51.030;13.812;2023-02-18T02:59:32;7.05;;;1.20;;
21729;SDS011;11027;51.030;13.812;2023-02-18T03:02:13;6.47;;;1.20;;
21729;SDS011;11027;51.030;13.812;2023-02-18T03:10:47;8.10;;;1.70;;
21729;SDS011;11027;51.030;13.812;2023-02-18T03:16:27;4.53;;;1.08;;
21729;SDS011;11027;51.030;13.812;2023-02-18T03:19:02;5.38;;;1.08;;
21729;SDS011;11027;51.030;13.812;2023-02-18T03:21:52;6.30;;;1.02;;
21729;SDS011;11027;51.030;13.812;2023-02-18T03:27:04;6.25;;;1.00;;
21729;SDS011;11027;51.030;13.812;2023-02-18T03:29:58;7.88;;;1.38;;
21729;SDS011;11027;51.030;13.812;2023-02-18T03:32:27;8.35;;;1.42;;
21729;SDS011;11027;51.030;13.812;2023-02-18T03:34:56;6.95;;;1.38;;
21729;SDS011;11027;51.030;13.812;2023-02-18T03:37:30;7.40;;;1.17;;
21729;SDS011;11027;51.030;13.812;2023-02-18T03:39:59;5.90;;;1.35;;
21729;SDS011;11027;51.030;13.812;2023-02-18T03:42:26;4.85;;;1.20;;
21729;SDS011;11027;51.030;13.812;2023-02-18T03:44:52;7.60;;;1.60;;
21729;SDS011;11027;51.030;13.812;2023-02-18T03:47:17;7.10;;;1.73;;
21729;SDS011;11027;51.030;13.812;2023-02-18T03:49:43;5.90;;;1.55;;
21729;SDS011;11027;51.030;13.812;2023-02-18T03:52:08;6.35;;;1.45;;
21729;SDS011;11027;51.030;13.812;2023-02-18T03:54:33;11.10;;;1.08;;
21729;SDS011;11027;51.030;13.812;2023-02-18T03:56:58;6.10;;;1.33;;
21729;SDS011;11027;51.030;13.812;2023-02-18T03:59:24;6.22;;;1.33;;
21729;SDS011;11027;51.030;13.812;2023-02-18T04:01:49;8.57;;;1.85;;
21729;SDS011;11027;51.030;13.812;2023-02-18T04:04:14;7.90;;;1.80;;
21729;SDS011;11027;51.030;13.812;2023-02-18T04:06:39;5.80;;;1.13;;
21729;SDS011;11027;51.030;13.812;2023-02-18T04:09:05;5.80;;;1.50;;
21729;SDS011;11027;51.030;13.812;2023-02-18T04:11:33;10.07;;;1.52;;
21729;SDS011;11027;51.030;13.812;2023-02-18T04:14:00;8.05;;;1.65;;
21729;SDS011;11027;51.030;13.812;2023-02-18T04:16:25;8.13;;;1.40;;
21729;SDS011;11027;51.030;13.812;2023-02-18T04:18:50;10.95;;;1.80;;
21729;SDS011;11027;51.030;13.812;2023-02-18T04:21:15;5.47;;;1.50;;
21729;SDS011;11027;51.030;13.812;2023-02-18T04:23:41;4.78;;;1.60;;
21729;SDS011;11027;51.030;13.812;2023-02-18T04:26:06;6.32;;;1.50;;
21729;SDS011;11027;51.030;13.812;2023-02-18T04:28:31;7.90;;;1.48;;
21729;SDS011;11027;51.030;13.812;2023-02-18T04:30:57;6.05;;;1.55;;
21729;SDS011;11027;51.030;13.812;2023-02-18T04:33:22;5.68;;;1.38;;
21729;SDS011;11027;51.030;13.812;2023-02-18T04:35:47;7.93;;;1.60;;
21729;SDS011;11027;51.030;13.812;2023-02-18T04:38:12;9.40;;;1.98;;
21729;SDS011;11027;51.030;13.812;2023-02-18T04:40:37;6.93;;;1.38;;
21729;SDS011;11027;51.030;13.812;2023-02-18T04:43:03;5.95;;;1.50;;
21729;SDS011;11027;51.030;13.812;2023-02-18T04:45:28;8.85;;;1.77;;
21729;SDS011;11027;51.030;13.812;2023-02-18T04:47:53;8.52;;;1.77;;
21729;SDS011;11027;51.030;13.812;2023-02-18T04:50:19;7.50;;;1.55;;
21729;SDS011;11027;51.030;13.812;2023-02-18T04:52:45;6.55;;;1.77;;
21729;SDS011;11027;51.030;13.812;2023-02-18T04:55:10;7.40;;;1.65;;
21729;SDS011;11027;51.030;13.812;2023-02-18T04:57:35;10.45;;;2.15;;
21729;SDS011;11027;51.030;13.812;2023-02-18T05:00:01;6.93;;;2.25;;
21729;SDS011;11027;51.030;13.812;2023-02-18T05:02:30;9.32;;;2.55;;
21729;SDS011;11027;51.030;13.812;2023-02-18T05:04:55;10.68;;;2.50;;
21729;SDS011;11027;51.030;13.812;2023-02-18T05:07:21;7.82;;;2.67;;
21729;SDS011;11027;51.030;13.812;2023-02-18T05:09:46;6.22;;;2.20;;
21729;SDS011;11027;51.030;13.812;2023-02-18T05:12:11;7.45;;;2.60;;
21729;SDS011;11027;51.030;13.812;2023-02-18T05:14:36;7.88;;;2.33;;
21729;SDS011;11027;51.030;13.812;2023-02-18T05:17:02;10.05;;;2.75;;
21729;SDS011;11027;51.030;13.812;2023-02-18T05:19:27;12.85;;;2.60;;
21729;SDS011;11027;51.030;13.812;2023-02-18T05:21:52;7.80;;;2.63;;
21729;SDS011;11027;51.030;13.812;2023-02-18T05:24:17;9.43;;;2.40;;
21729;SDS011;11027;51.030;13.812;2023-02-18T05:26:43;8.77;;;2.58;;
21729;SDS011;11027;51.030;13.812;2023-02-18T05:29:08;8.18;;;2.47;;
21729;SDS011;11027;51.030;13.812;2023-02-18T05:31:33;9.45;;;2.63;;
21729;SDS011;11027;51.030;13.812;2023-02-18T05:33:58;7.60;;;2.33;;
21729;SDS011;11027;51.030;13.812;2023-02-18T05:36:24;7.43;;;2.63;;
21729;SDS011;11027;51.030;13.812;2023-02-18T05:38:49;8.07;;;3.05;;
21729;SDS011;11027;51.030;13.812;2023-02-18T05:41:14;8.30;;;2.47;;
21729;SDS011;11027;51.030;13.812;2023-02-18T05:43:40;12.48;;;3.38;;
21729;SDS011;11027;51.030;13.812;2023-02-18T05:46:24;10.98;;;3.08;;
21729;SDS011;11027;51.030;13.812;2023-02-18T05:48:49;8.63;;;2.60;;
21729;SDS011;11027;51.030;13.812;2023-02-18T05:51:14;7.78;;;2.70;;
21729;SDS011;11027;51.030;13.812;2023-02-18T05:53:40;9.00;;;2.75;;
21729;SDS011;11027;51.030;13.812;2023-02-18T05:56:05;11.07;;;3.15;;
21729;SDS011;11027;51.030;13.812;2023-02-18T05:58:31;8.48;;;2.90;;
21729;SDS011;11027;51.030;13.812;2023-02-18T06:00:56;8.23;;;2.95;;
21729;SDS011;11027;51.030;13.812;2023-02-18T06:03:21;9.45;;;3.05;;
21729;SDS011;11027;51.030;13.812;2023-02-18T06:05:48;6.07;;;2.95;;
21729;SDS011;11027;51.030;13.812;2023-02-18T06:08:14;7.70;;;2.78;;
21729;SDS011;11027;51.030;13.812;2023-02-18T06:10:40;10.25;;;3.70;;
21729;SDS011;11027;51.030;13.812;2023-02-18T06:13:05;7.88;;;3.15;;
21729;SDS011;11027;51.030;13.812;2023-02-18T06:15:30;8.95;;;3.70;;
21729;SDS011;11027;51.030;13.812;2023-02-18T06:17:55;13.27;;;3.67;;
21729;SDS011;11027;51.030;13.812;2023-02-18T06:20:20;10.88;;;3.70;;
21729;SDS011;11027;51.030;13.812;2023-02-18T06:22:46;9.15;;;3.40;;
21729;SDS011;11027;51.030;13.812;2023-02-18T06:25:11;11.95;;;4.07;;
21729;SDS011;11027;51.030;13.812;2023-02-18T06:27:36;14.05;;;4.10;;
21729;SDS011;11027;51.030;13.812;2023-02-18T06:30:02;9.88;;;3.70;;
21729;SDS011;11027;51.030;13.812;2023-02-18T06:32:27;10.30;;;4.05;;
21729;SDS011;11027;51.030;13.812;2023-02-18T06:34:52;10.48;;;3.90;;
21729;SDS011;11027;51.030;13.812;2023-02-18T06:37:17;13.60;;;4.63;;
21729;SDS011;11027;51.030;13.812;2023-02-18T06:39:43;13.25;;;4.40;;
21729;SDS011;11027;51.030;13.812;2023-02-18T06:42:08;9.68;;;4.88;;
21729;SDS011;11027;51.030;13.812;2023-02-18T06:44:33;10.27;;;4.45;;
21729;SDS011;11027;51.030;13.812;2023-02-18T06:46:58;11.43;;;4.82;;
21729;SDS011;11027;51.030;13.812;2023-02-18T06:49:24;14.82;;;5.45;;
21729;SDS011;11027;51.030;13.812;2023-02-18T06:51:49;13.73;;;5.53;;
21729;SDS011;11027;51.030;13.812;2023-02-18T06:54:14;12.15;;;5.70;;
21729;SDS011;11027;51.030;13.812;2023-02-18T06:56:39;10.73;;;5.25;;
21729;SDS011;11027;51.030;13.812;2023-02-18T06:59:05;12.68;;;5.85;;
21729;SDS011;11027;51.030;13.812;2023-02-18T07:01:30;12.57;;;6.00;;
21729;SDS011;11027;51.030;13.812;2023-02-18T07:03:55;13.82;;;5.97;;
21729;SDS011;11027;51.030;13.812;2023-02-18T07:06:20;13.00;;;5.28;;
21729;SDS011;11027;51.030;13.812;2023-02-18T07:08:46;11.32;;;5.75;;
21729;SDS011;11027;51.030;13.812;2023-02-18T07:11:11;11.93;;;5.75;;
21729;SDS011;11027;51.030;13.812;2023-02-18T07:13:36;12.30;;;5.00;;
21729;SDS011;11027;51.030;13.812;2023-02-18T07:16:01;14.48;;;4.85;;
21729;SDS011;11027;51.030;13.812;2023-02-18T07:18:27;10.73;;;4.80;;
21729;SDS011;11027;51.030;13.812;2023-02-18T07:20:52;10.82;;;5.25;;
21729;SDS011;11027;51.030;13.812;2023-02-18T07:23:17;11.55;;;5.18;;
21729;SDS011;11027;51.030;13.812;2023-02-18T07:25:42;12.75;;;5.10;;
21729;SDS011;11027;51.030;13.812;2023-02-18T07:28:10;15.25;;;5.40;;
21729;SDS011;11027;51.030;13.812;2023-02-18T07:30:35;12.05;;;5.82;;
21729;SDS011;11027;51.030;13.812;2023-02-18T07:33:00;12.73;;;5.85;;
21729;SDS011;11027;51.030;13.812;2023-02-18T07:35:25;9.77;;;5.57;;
21729;SDS011;11027;51.030;13.812;2023-02-18T07:37:51;9.52;;;5.55;;
21729;SDS011;11027;51.030;13.812;2023-02-18T07:40:17;13.63;;;5.60;;
21729;SDS011;11027;51.030;13.812;2023-02-18T07:42:45;14.30;;;6.18;;
21729;SDS011;11027;51.030;13.812;2023-02-18T07:45:11;13.48;;;5.75;;
21729;SDS011;11027;51.030;13.812;2023-02-18T07:47:37;11.93;;;6.10;;
21729;SDS011;11027;51.030;13.812;2023-02-18T07:50:02;14.40;;;6.70;;
21729;SDS011;11027;51.030;13.812;2023-02-18T07:52:28;12.02;;;7.00;;
21729;SDS011;11027;51.030;13.812;2023-02-18T07:54:55;13.00;;;6.50;;
21729;SDS011;11027;51.030;13.812;2023-02-18T07:57:20;11.30;;;6.22;;
21729;SDS011;11027;51.030;13.812;2023-02-18T07:59:45;13.73;;;7.00;;
21729;SDS011;11027;51.030;13.812;2023-02-18T08:02:14;10.98;;;7.22;;
21729;SDS011;11027;51.030;13.812;2023-02-18T08:04:44;16.10;;;7.13;;
21729;SDS011;11027;51.030;13.812;2023-02-18T08:07:15;14.82;;;7.88;;
21729;SDS011;11027;51.030;13.812;2023-02-18T08:09:42;13.05;;;7.40;;
21729;SDS011;11027;51.030;13.812;2023-02-18T08:12:07;11.82;;;7.50;;
21729;SDS011;11027;51.030;13.812;2023-02-18T08:14:32;16.10;;;7.70;;
21729;SDS011;11027;51.030;13.812;2023-02-18T08:16:58;12.25;;;7.47;;
21729;SDS011;11027;51.030;13.812;2023-02-18T08:19:23;12.15;;;7.55;;
21729;SDS011;11027;51.030;13.812;2023-02-18T08:21:48;11.23;;;7.00;;
21729;SDS011;11027;51.030;13.812;2023-02-18T08:24:14;9.65;;;7.22;;
21729;SDS011;11027;51.030;13.812;2023-02-18T08:26:39;10.77;;;7.95;;
21729;SDS011;11027;51.030;13.812;2023-02-18T08:29:04;15.30;;;8.27;;
21729;SDS011;11027;51.030;13.812;2023-02-18T08:31:30;14.40;;;8.07;;
21729;SDS011;11027;51.030;13.812;2023-02-18T08:33:56;12.80;;;7.18;;
21729;SDS011;11027;51.030;13.812;2023-02-18T08:36:23;12.35;;;8.23;;
21729;SDS011;11027;51.030;13.812;2023-02-18T08:38:48;13.05;;;8.25;;
21729;SDS011;11027;51.030;13.812;2023-02-18T08:41:14;14.90;;;8.63;;
21729;SDS011;11027;51.030;13.812;2023-02-18T08:43:40;16.65;;;8.63;;
21729;SDS011;11027;51.030;13.812;2023-02-18T08:46:06;13.60;;;8.32;;
21729;SDS011;11027;51.030;13.812;2023-02-18T08:48:31;11.05;;;8.15;;
21729;SDS011;11027;51.030;13.812;2023-02-18T08:50:57;14.70;;;8.38;;
21729;SDS011;11027;51.030;13.812;2023-02-18T08:53:22;12.55;;;8.25;;
21729;SDS011;11027;51.030;13.812;2023-02-18T08:55:48;13.43;;;8.18;;
21729;SDS011;11027;51.030;13.812;2023-02-18T08:58:13;10.85;;;7.88;;
21729;SDS011;11027;51.030;13.812;2023-02-18T09:00:39;12.07;;;8.55;;
21729;SDS011;11027;51.030;13.812;2023-02-18T09:03:05;11.55;;;8.50;;
21729;SDS011;11027;51.030;13.812;2023-02-18T09:05:31;14.20;;;8.57;;
21729;SDS011;11027;51.030;13.812;2023-02-18T09:07:57;14.13;;;8.63;;
21729;SDS011;11027;51.030;13.812;2023-02-18T09:10:23;13.85;;;8.43;;
21729;SDS011;11027;51.030;13.812;2023-02-18T09:12:48;12.57;;;8.05;;
21729;SDS011;11027;51.030;13.812;2023-02-18T09:15:14;11.43;;;8.02;;
21729;SDS011;11027;51.030;13.812;2023-02-18T09:17:39;13.27;;;8.27;;
21729;SDS011;11027;51.030;13.812;2023-02-18T09:20:05;14.18;;;8.48;;
21729;SDS011;11027;51.030;13.812;2023-02-18T09:22:31;13.88;;;8.90;;
21729;SDS011;11027;51.030;13.812;2023-02-18T09:24:56;13.50;;;7.60;;
21729;SDS011;11027;51.030;13.812;2023-02-18T09:27:22;11.65;;;8.23;;
21729;SDS011;11027;51.030;13.812;2023-02-18T09:29:48;12.43;;;8.32;;
21729;SDS011;11027;51.030;13.812;2023-02-18T09:32:14;15.68;;;9.10;;
21729;SDS011;11027;51.030;13.812;2023-02-18T09:34:41;15.77;;;9.65;;
21729;SDS011;11027;51.030;13.812;2023-02-18T09:37:07;16.45;;;10.27;;
21729;SDS011;11027;51.030;13.812;2023-02-18T09:39:32;14.15;;;10.60;;
21729;SDS011;11027;51.030;13.812;2023-02-18T09:42:01;13.73;;;9.88;;
21729;SDS011;11027;51.030;13.812;2023-02-18T09:44:34;15.65;;;10.13;;
21729;SDS011;11027;51.030;13.812;2023-02-18T09:47:10;18.20;;;9.82;;
21729;SDS011;11027;51.030;13.812;2023-02-18T09:49:39;16.02;;;9.18;;
21729;SDS011;11027;51.030;13.812;2023-02-18T09:52:21;13.23;;;8.95;;
21729;SDS011;11027;51.030;13.812;2023-02-18T09:54:49;8.07;;;5.07;;
21729;SDS011;11027;51.030;13.812;2023-02-18T09:57:22;12.50;;;6.85;;
21729;SDS011;11027;51.030;13.812;2023-02-18T09:59:55;10.25;;;7.63;;
21729;SDS011;11027;51.030;13.812;2023-02-18T10:02:25;12.80;;;8.25;;
21729;SDS011;11027;51.030;13.812;2023-02-18T10:04:52;11.27;;;7.63;;
21729;SDS011;11027;51.030;13.812;2023-02-18T10:07:28;6.95;;;4.90;;
21729;SDS011;11027;51.030;13.812;2023-02-18T10:09:56;10.55;;;7.18;;
21729;SDS011;11027;51.030;13.812;2023-02-18T10:12:26;10.30;;;7.22;;
21729;SDS011;11027;51.030;13.812;2023-02-18T10:14:55;8.65;;;4.50;;
21729;SDS011;11027;51.030;13.812;2023-02-18T10:17:24;7.63;;;4.80;;
21729;SDS011;11027;51.030;13.812;2023-02-18T10:19:53;3.35;;;2.42;;
21729;SDS011;11027;51.030;13.812;2023-02-18T10:22:21;1.40;;;1.05;;
21729;SDS011;11027;51.030;13.812;2023-02-18T10:24:49;1.00;;;0.80;;
21729;SDS011;11027;51.030;13.812;2023-02-18T10:27:20;2.60;;;0.73;;
21729;SDS011;11027;51.030;13.812;2023-02-18T10:29:51;2.25;;;0.60;;
21729;SDS011;11027;51.030;13.812;2023-02-18T10:32:20;0.60;;;0.60;;
21729;SDS011;11027;51.030;13.812;2023-02-18T10:34:51;0.85;;;0.40;;
21729;SDS011;11027;51.030;13.812;2023-02-18T10:43:13;1.00;;;0.40;;
21729;SDS011;11027;51.030;13.812;2023-02-18T10:46:04;1.23;;;0.50;;
21729;SDS011;11027;51.030;13.812;2023-02-18T10:48:53;0.73;;;0.40;;
21729;SDS011;11027;51.030;13.812;2023-02-18T10:51:30;1.13;;;0.30;;
21729;SDS011;11027;51.030;13.812;2023-02-18T10:53:57;0.88;;;0.40;;
21729;SDS011;11027;51.030;13.812;2023-02-18T10:59:11;0.77;;;0.40;;
21729;SDS011;11027;51.030;13.812;2023-02-18T11:01:45;0.57;;;0.32;;
21729;SDS011;11027;51.030;13.812;2023-02-18T11:04:24;0.90;;;0.35;;
21729;SDS011;11027;51.030;13.812;2023-02-18T11:07:04;0.65;;;0.40;;
21729;SDS011;11027;51.030;13.812;2023-02-18T11:09:41;0.43;;;0.40;;
21729;SDS011;11027;51.030;13.812;2023-02-18T11:12:19;0.98;;;0.32;;
21729;SDS011;11027;51.030;13.812;2023-02-18T11:14:49;0.30;;;0.30;;
21729;SDS011;11027;51.030;13.812;2023-02-18T11:17:32;1.00;;;0.30;;
21729;SDS011;11027;51.030;13.812;2023-02-18T11:20:02;0.20;;;0.20;;
21729;SDS011;11027;51.030;13.812;2023-02-18T11:22:42;0.30;;;0.30;;
21729;SDS011;11027;51.030;13.812;2023-02-18T11:25:26;0.60;;;0.30;;
21729;SDS011;11027;51.030;13.812;2023-02-18T11:27:58;0.40;;;0.40;;
21729;SDS011;11027;51.030;13.812;2023-02-18T11:30:30;0.63;;;0.50;;
21729;SDS011;11027;51.030;13.812;2023-02-18T11:32:59;1.90;;;0.47;;
21729;SDS011;11027;51.030;13.812;2023-02-18T11:35:29;0.38;;;0.30;;
21729;SDS011;11027;51.030;13.812;2023-02-18T11:37:56;0.60;;;0.40;;
21729;SDS011;11027;51.030;13.812;2023-02-18T11:43:03;0.22;;;0.13;;
21729;SDS011;11027;51.030;13.812;2023-02-18T11:45:32;1.05;;;0.25;;
21729;SDS011;11027;51.030;13.812;2023-02-18T11:48:06;2.08;;;1.42;;
21729;SDS011;11027;51.030;13.812;2023-02-18T11:50:39;0.55;;;0.20;;
21729;SDS011;11027;51.030;13.812;2023-02-18T11:53:26;0.38;;;0.20;;
21729;SDS011;11027;51.030;13.812;2023-02-18T11:55:55;0.38;;;0.38;;
21729;SDS011;11027;51.030;13.812;2023-02-18T11:58:24;1.77;;;0.22;;
21729;SDS011;11027;51.030;13.812;2023-02-18T12:00:52;0.85;;;0.22;;
21729;SDS011;11027;51.030;13.812;2023-02-18T12:06:21;3.50;;;0.30;;
21729;SDS011;11027;51.030;13.812;2023-02-18T12:08:51;0.40;;;0.40;;
21729;SDS011;11027;51.030;13.812;2023-02-18T12:11:30;0.43;;;0.30;;
21729;SDS011;11027;51.030;13.812;2023-02-18T12:14:00;0.40;;;0.40;;
21729;SDS011;11027;51.030;13.812;2023-02-18T12:16:35;0.80;;;0.45;;
21729;SDS011;11027;51.030;13.812;2023-02-18T12:19:32;1.08;;;0.50;;
21729;SDS011;11027;51.030;13.812;2023-02-18T12:22:17;0.65;;;0.40;;
21729;SDS011;11027;51.030;13.812;2023-02-18T12:27:57;0.55;;;0.55;;
21729;SDS011;11027;51.030;13.812;2023-02-18T12:30:44;0.50;;;0.50;;
21729;SDS011;11027;51.030;13.812;2023-02-18T12:42:00;1.30;;;0.80;;
21729;SDS011;11027;51.030;13.812;2023-02-18T12:44:47;3.60;;;1.20;;
21729;SDS011;11027;51.030;13.812;2023-02-18T12:47:27;0.68;;;0.65;;
21729;SDS011;11027;51.030;13.812;2023-02-18T12:52:47;1.25;;;0.80;;
21729;SDS011;11027;51.030;13.812;2023-02-18T12:55:37;2.17;;;0.90;;
21729;SDS011;11027;51.030;13.812;2023-02-18T13:01:29;1.00;;;0.80;;
21729;SDS011;11027;51.030;13.812;2023-02-18T13:09:25;2.45;;;1.00;;
21729;SDS011;11027;51.030;13.812;2023-02-18T13:12:26;1.27;;;0.82;;
21729;SDS011;11027;51.030;13.812;2023-02-18T13:15:04;0.75;;;0.70;;
21729;SDS011;11027;51.030;13.812;2023-02-18T13:17:40;1.45;;;0.90;;
21729;SDS011;11027;51.030;13.812;2023-02-18T13:20:17;1.67;;;0.90;;
21729;SDS011;11027;51.030;13.812;2023-02-18T13:22:47;0.98;;;0.70;;
21729;SDS011;11027;51.030;13.812;2023-02-18T13:25:14;1.10;;;0.77;;
21729;SDS011;11027;51.030;13.812;2023-02-18T13:27:49;0.88;;;0.80;;
21729;SDS011;11027;51.030;13.812;2023-02-18T13:31:00;0.88;;;0.68;;
21729;SDS011;11027;51.030;13.812;2023-02-18T13:33:35;1.30;;;0.50;;
21729;SDS011;11027;51.030;13.812;2023-02-18T13:39:14;0.73;;;0.50;;
21729;SDS011;11027;51.030;13.812;2023-02-18T13:41:45;0.73;;;0.57;;
21729;SDS011;11027;51.030;13.812;2023-02-18T13:46:47;1.40;;;0.43;;
21729;SDS011;11027;51.030;13.812;2023-02-18T13:49:14;1.38;;;0.70;;
21729;SDS011;11027;51.030;13.812;2023-02-18T13:51:45;0.60;;;0.40;;
21729;SDS011;11027;51.030;13.812;2023-02-18T13:56:44;1.27;;;0.75;;
21729;SDS011;11027;51.030;13.812;2023-02-18T13:59:10;1.85;;;0.63;;
21729;SDS011;11027;51.030;13.812;2023-02-18T14:01:44;0.73;;;0.60;;
21729;SDS011;11027;51.030;13.812;2023-02-18T14:09:43;3.85;;;0.60;;
21729;SDS011;11027;51.030;13.812;2023-02-18T14:12:16;5.20;;;0.55;;
21729;SDS011;11027;51.030;13.812;2023-02-18T14:14:50;0.93;;;0.60;;
21729;SDS011;11027;51.030;13.812;2023-02-18T14:19:53;1.50;;;0.40;;
21729;SDS011;11027;51.030;13.812;2023-02-18T14:25:21;1.65;;;0.50;;
21729;SDS011;11027;51.030;13.812;2023-02-18T14:27:52;2.50;;;0.60;;
21729;SDS011;11027;51.030;13.812;2023-02-18T14:32:47;0.65;;;0.50;;
21729;SDS011;11027;51.030;13.812;2023-02-18T14:47:24;0.47;;;0.47;;
21729;SDS011;11027;51.030;13.812;2023-02-18T14:49:58;3.90;;;0.60;;
21729;SDS011;11027;51.030;13.812;2023-02-18T14:54:59;0.68;;;0.40;;
21729;SDS011;11027;51.030;13.812;2023-02-18T14:57:29;1.52;;;0.50;;
21729;SDS011;11027;51.030;13.812;2023-02-18T15:00:14;0.52;;;0.52;;
21729;SDS011;11027;51.030;13.812;2023-02-18T15:02:46;0.40;;;0.40;;
21729;SDS011;11027;51.030;13.812;2023-02-18T15:05:17;0.90;;;0.50;;
21729;SDS011;11027;51.030;13.812;2023-02-18T15:08:00;1.00;;;0.30;;
21729;SDS011;11027;51.030;13.812;2023-02-18T15:13:04;1.15;;;0.45;;
21729;SDS011;11027;51.030;13.812;2023-02-18T15:15:37;1.20;;;0.35;;
21729;SDS011;11027;51.030;13.812;2023-02-18T15:18:02;0.63;;;0.50;;
21729;SDS011;11027;51.030;13.812;2023-02-18T15:20:31;1.08;;;0.73;;
21729;SDS011;11027;51.030;13.812;2023-02-18T15:22:58;2.45;;;0.60;;
21729;SDS011;11027;51.030;13.812;2023-02-18T15:25:24;1.35;;;0.50;;
21729;SDS011;11027;51.030;13.812;2023-02-18T15:27:50;0.65;;;0.50;;
21729;SDS011;11027;51.030;13.812;2023-02-18T15:30:18;0.60;;;0.50;;
21729;SDS011;11027;51.030;13.812;2023-02-18T15:32:53;0.52;;;0.38;;
21729;SDS011;11027;51.030;13.812;2023-02-18T15:35:20;1.52;;;0.88;;
21729;SDS011;11027;51.030;13.812;2023-02-18T15:37:51;2.75;;;0.38;;
21729;SDS011;11027;51.030;13.812;2023-02-18T15:40:18;2.03;;;0.30;;
21729;SDS011;11027;51.030;13.812;2023-02-18T15:42:47;0.50;;;0.30;;
21729;SDS011;11027;51.030;13.812;2023-02-18T15:45:21;0.85;;;0.50;;
21729;SDS011;11027;51.030;13.812;2023-02-18T15:47:53;0.95;;;0.30;;
21729;SDS011;11027;51.030;13.812;2023-02-18T15:52:53;0.28;;;0.28;;
21729;SDS011;11027;51.030;13.812;2023-02-18T15:55:24;0.70;;;0.32;;
21729;SDS011;11027;51.030;13.812;2023-02-18T15:57:55;0.20;;;0.20;;
21729;SDS011;11027;51.030;13.812;2023-02-18T16:00:46;0.52;;;0.30;;
21729;SDS011;11027;51.030;13.812;2023-02-18T16:05:43;1.10;;;0.30;;
21729;SDS011;11027;51.030;13.812;2023-02-18T16:08:13;1.23;;;0.20;;
21729;SDS011;11027;51.030;13.812;2023-02-18T16:10:52;0.88;;;0.25;;
21729;SDS011;11027;51.030;13.812;2023-02-18T16:13:20;0.20;;;0.20;;
21729;SDS011;11027;51.030;13.812;2023-02-18T16:15:47;1.38;;;0.40;;
21729;SDS011;11027;51.030;13.812;2023-02-18T16:18:20;1.38;;;0.30;;
21729;SDS011;11027;51.030;13.812;2023-02-18T16:20:52;4.80;;;0.22;;
21729;SDS011;11027;51.030;13.812;2023-02-18T16:23:24;0.10;;;0.10;;
21729;SDS011;11027;51.030;13.812;2023-02-18T16:25:51;0.32;;;0.30;;
21729;SDS011;11027;51.030;13.812;2023-02-18T16:28:23;0.75;;;0.30;;
21729;SDS011;11027;51.030;13.812;2023-02-18T16:30:51;0.47;;;0.28;;
21729;SDS011;11027;51.030;13.812;2023-02-18T16:33:17;0.30;;;0.17;;
21729;SDS011;11027;51.030;13.812;2023-02-18T16:35:42;0.80;;;0.40;;